Time;durP1;ratioP1;P1;durP2;ratioP2;P2;SDS_P1;SDS_P2;PMS_P1;PMS_P2;Temp;Humidity;BMP_temperature;BMP_pressure;BME280_temperature;BME280_humidity;BME280_pressure;Samples;Min_cycle;Max_cycle;Signal;HPM_P1;HPM_P2
2022/05/22 00:02:18;;;;;;;;;;;16.30;91.60;;;;;;5027520;28;20646;-59
2022/05/22 00:04:44;;;;;;;;;;;16.40;92.50;;;;;;5032544;28;19931;-59
2022/05/22 00:07:11;;;;;;;;;;;16.40;92.60;;;;;;5032584;28;19920;-59
2022/05/22 00:09:38;;;;;;;;;;;16.50;91.90;;;;;;5030971;28;20008;-58
2022/05/22 00:12:05;;;;;;;;;;;16.60;92.10;;;;;;5028209;28;19955;-59
2022/05/22 00:14:32;;;;;;;;;;;16.70;91.30;;;;;;5029816;28;20031;-60
2022/05/22 00:16:59;;;;;;;;;;;16.70;91.70;;;;;;5032033;28;20281;-60
2022/05/22 00:19:27;;;;;;;;;;;16.80;91.70;;;;;;5025380;28;20317;-60
2022/05/22 00:21:54;;;;;;;;;;;16.90;91.70;;;;;;5021923;28;19957;-60
2022/05/22 00:24:23;;;;;;;;;;;16.90;91.80;;;;;;5018056;28;20374;-59
2022/05/22 00:26:49;;;;;;;;;;;17.00;91.20;;;;;;5027517;28;19988;-59
2022/05/22 00:29:17;;;;;;;;;;;17.20;91.80;;;;;;5028238;28;19917;-60
2022/05/22 00:31:43;;;;;;;;;;;17.40;91.10;;;;;;5015849;28;19956;-59
2022/05/22 00:34:10;;;;;;;;;;;17.40;90.60;;;;;;5017079;28;19909;-59
2022/05/22 00:36:37;;;;;;;;;;;17.40;91.10;;;;;;5026565;28;20382;-60
2022/05/22 00:39:04;;;;;;;;;;;17.50;90.50;;;;;;5025718;28;19940;-59
2022/05/22 00:41:32;;;;;;;;;;;17.60;88.80;;;;;;5022031;28;19917;-59
2022/05/22 00:44:00;;;;;;;;;;;17.60;90.20;;;;;;5019544;28;19912;-60
2022/05/22 00:46:29;;;;;;;;;;;17.70;90.00;;;;;;5029874;28;19911;-60
2022/05/22 00:49:01;;;;;;;;;;;17.80;89.70;;;;;;5029668;28;19909;-61
2022/05/22 00:51:39;;;;;;;;;;;17.90;90.00;;;;;;5030148;28;20243;-59
2022/05/22 00:54:15;;;;;;;;;;;18.10;89.50;;;;;;5029897;28;19936;-59
2022/05/22 00:56:46;;;;;;;;;;;18.10;86.70;;;;;;5030579;28;19949;-59
2022/05/22 00:59:15;;;;;;;;;;;18.20;86.40;;;;;;5029076;28;19909;-59
2022/05/22 01:01:42;;;;;;;;;;;18.20;86.10;;;;;;5028858;28;19920;-59
2022/05/22 01:04:11;;;;;;;;;;;18.20;85.10;;;;;;5029784;28;20003;-59
2022/05/22 01:06:38;;;;;;;;;;;18.30;84.90;;;;;;5028554;28;19912;-60
2022/05/22 01:09:04;;;;;;;;;;;18.20;83.40;;;;;;5030004;28;19944;-59
2022/05/22 01:11:34;;;;;;;;;;;18.30;85.20;;;;;;5029535;28;20312;-60
2022/05/22 01:14:08;;;;;;;;;;;18.30;83.60;;;;;;5031479;28;19909;-60
2022/05/22 01:16:36;;;;;;;;;;;18.20;84.70;;;;;;5019701;28;19905;-61
2022/05/22 01:19:09;;;;;;;;;;;18.20;84.90;;;;;;5030719;28;19909;-61
2022/05/22 01:21:36;;;;;;;;;;;18.10;83.30;;;;;;5019606;28;20361;-61
2022/05/22 01:24:02;;;;;;;;;;;18.10;83.70;;;;;;5031089;28;19951;-65
2022/05/22 01:26:30;;;;;;;;;;;18.10;83.70;;;;;;5031046;28;19912;-61
2022/05/22 01:28:56;;;;;;;;;;;18.10;85.00;;;;;;5031265;28;20370;-61
2022/05/22 01:31:23;;;;;;;;;;;18.10;85.30;;;;;;5031274;28;19912;-70
2022/05/22 01:33:50;;;;;;;;;;;18.10;85.60;;;;;;5030981;28;19943;-68
2022/05/22 01:36:17;;;;;;;;;;;18.10;84.60;;;;;;5029750;28;20323;-63
2022/05/22 01:38:44;;;;;;;;;;;18.20;84.00;;;;;;5031616;28;19920;-63
2022/05/22 01:41:10;;;;;;;;;;;18.20;83.70;;;;;;5029672;28;19909;-66
2022/05/22 01:43:37;;;;;;;;;;;18.30;82.80;;;;;;5030960;28;20626;-66
2022/05/22 01:46:04;;;;;;;;;;;18.40;83.80;;;;;;5030835;28;19919;-65
2022/05/22 01:48:30;;;;;;;;;;;18.50;82.10;;;;;;5029697;28;20469;-63
2022/05/22 01:50:57;;;;;;;;;;;18.60;81.30;;;;;;5030928;28;19905;-63
2022/05/22 01:53:23;;;;;;;;;;;18.70;79.60;;;;;;5030975;28;19924;-63
2022/05/22 01:55:50;;;;;;;;;;;18.70;81.00;;;;;;5030460;28;19927;-63
2022/05/22 01:58:17;;;;;;;;;;;18.80;80.10;;;;;;5030959;28;20008;-64
2022/05/22 02:00:44;;;;;;;;;;;18.90;79.20;;;;;;5029887;28;20258;-65
2022/05/22 02:03:11;;;;;;;;;;;18.90;79.00;;;;;;5020927;28;19905;-65
2022/05/22 02:05:37;;;;;;;;;;;18.90;80.00;;;;;;5011107;28;19905;-64
2022/05/22 02:08:22;;;;;;;;;;;18.90;79.40;;;;;;5010429;28;20028;-64
2022/05/22 02:10:53;;;;;;;;;;;18.90;79.20;;;;;;5019840;28;19913;-63
2022/05/22 02:13:21;;;;;;;;;;;18.80;79.90;;;;;;5016304;28;19909;-63
2022/05/22 02:15:48;;;;;;;;;;;18.80;79.70;;;;;;5027439;28;19999;-63
2022/05/22 02:18:15;;;;;;;;;;;18.70;79.80;;;;;;5030166;28;19913;-63
2022/05/22 02:20:42;;;;;;;;;;;18.50;84.00;;;;;;5030348;28;19961;-63
2022/05/22 02:23:09;;;;;;;;;;;18.10;87.80;;;;;;5029987;28;19967;-61
2022/05/22 02:25:37;;;;;;;;;;;17.80;90.30;;;;;;5030522;28;19995;-61
2022/05/22 02:28:04;;;;;;;;;;;17.60;90.40;;;;;;5025792;28;19913;-61
2022/05/22 02:30:32;;;;;;;;;;;17.40;90.50;;;;;;5025939;28;19912;-61
2022/05/22 02:32:59;;;;;;;;;;;17.40;90.80;;;;;;5027449;28;20433;-61
2022/05/22 02:35:26;;;;;;;;;;;17.30;91.20;;;;;;5027387;28;20289;-61
2022/05/22 02:37:53;;;;;;;;;;;17.30;90.10;;;;;;5027320;28;19909;-61
2022/05/22 02:40:21;;;;;;;;;;;17.30;90.90;;;;;;5007595;28;19909;-61
2022/05/22 02:42:49;;;;;;;;;;;17.30;90.50;;;;;;5011937;28;19956;-61
2022/05/22 02:45:17;;;;;;;;;;;17.20;89.50;;;;;;5027653;28;19996;-62
2022/05/22 02:47:44;;;;;;;;;;;17.20;89.40;;;;;;5026825;28;19916;-63
2022/05/22 02:50:11;;;;;;;;;;;17.20;88.60;;;;;;5027946;28;19940;-61
2022/05/22 02:52:38;;;;;;;;;;;17.20;89.20;;;;;;5026979;28;19913;-61
2022/05/22 02:55:05;;;;;;;;;;;17.20;88.70;;;;;;5027472;28;19913;-61
2022/05/22 02:57:35;;;;;;;;;;;17.10;87.70;;;;;;5027729;28;19912;-61
2022/05/22 03:00:03;;;;;;;;;;;17.10;89.10;;;;;;5027005;28;19909;-61
2022/05/22 03:02:30;;;;;;;;;;;17.10;89.90;;;;;;5026628;28;19921;-61
2022/05/22 03:04:56;;;;;;;;;;;17.10;89.50;;;;;;5026016;28;19909;-60
2022/05/22 03:07:23;;;;;;;;;;;17.10;89.70;;;;;;5025729;28;19921;-61
2022/05/22 03:09:50;;;;;;;;;;;17.10;89.80;;;;;;5026038;28;19913;-61
2022/05/22 03:12:20;;;;;;;;;;;17.10;90.10;;;;;;5027949;28;19991;-61
2022/05/22 03:14:56;;;;;;;;;;;17.10;88.80;;;;;;5027304;28;19971;-62
2022/05/22 03:17:23;;;;;;;;;;;17.10;89.80;;;;;;5026891;28;19917;-61
2022/05/22 03:19:50;;;;;;;;;;;17.20;90.00;;;;;;5025474;28;19909;-60
2022/05/22 03:22:17;;;;;;;;;;;17.20;90.00;;;;;;5021474;28;19921;-60
2022/05/22 03:24:44;;;;;;;;;;;17.30;89.70;;;;;;5027212;28;19964;-61
2022/05/22 03:27:12;;;;;;;;;;;17.30;87.40;;;;;;5017041;28;19909;-60
2022/05/22 03:29:39;;;;;;;;;;;17.30;87.90;;;;;;5020258;28;19912;-60
2022/05/22 03:32:07;;;;;;;;;;;17.30;87.30;;;;;;5027391;28;20431;-61
2022/05/22 03:34:34;;;;;;;;;;;17.30;88.20;;;;;;5023318;28;19913;-60
2022/05/22 03:37:00;;;;;;;;;;;17.30;88.00;;;;;;5027296;28;20424;-61
2022/05/22 03:39:27;;;;;;;;;;;17.30;88.40;;;;;;5030066;28;19909;-61
2022/05/22 03:41:54;;;;;;;;;;;17.30;88.70;;;;;;5030785;28;19917;-61
2022/05/22 03:44:21;;;;;;;;;;;17.40;87.80;;;;;;5028240;28;19951;-61
2022/05/22 03:46:48;;;;;;;;;;;17.40;87.50;;;;;;5026057;28;19917;-62
2022/05/22 03:49:14;;;;;;;;;;;17.40;88.90;;;;;;5031902;28;20509;-61
2022/05/22 03:51:42;;;;;;;;;;;17.40;87.90;;;;;;5032573;28;19905;-61
2022/05/22 03:54:09;;;;;;;;;;;17.50;88.00;;;;;;5031887;28;19905;-61
2022/05/22 03:56:38;;;;;;;;;;;17.50;88.00;;;;;;5032637;28;19988;-61
2022/05/22 03:59:04;;;;;;;;;;;17.60;87.00;;;;;;5033041;28;19979;-60
2022/05/22 04:01:31;;;;;;;;;;;17.60;88.90;;;;;;5032858;28;19920;-61
2022/05/22 04:03:58;;;;;;;;;;;17.70;88.40;;;;;;5032326;28;19908;-61
2022/05/22 04:06:24;;;;;;;;;;;17.70;87.20;;;;;;5032162;28;19920;-61
2022/05/22 04:08:51;;;;;;;;;;;17.70;86.90;;;;;;5032785;28;20011;-61
2022/05/22 04:11:18;;;;;;;;;;;17.70;88.00;;;;;;5033244;28;20364;-61
2022/05/22 04:13:45;;;;;;;;;;;17.70;87.80;;;;;;5033262;28;19954;-61
2022/05/22 04:16:12;;;;;;;;;;;17.60;86.80;;;;;;5032674;28;20346;-61
2022/05/22 04:18:39;;;;;;;;;;;17.60;86.80;;;;;;5032421;28;19906;-61
2022/05/22 04:21:06;;;;;;;;;;;17.60;86.50;;;;;;5032757;28;19913;-61
2022/05/22 04:26:17;;;;;;;;;;;17.60;86.60;;;;;;5032935;28;19924;-61
2022/05/22 04:28:44;;;;;;;;;;;17.70;87.20;;;;;;5033056;28;19911;-61
2022/05/22 04:31:11;;;;;;;;;;;17.70;87.00;;;;;;5031205;28;20409;-61
2022/05/22 04:33:37;;;;;;;;;;;17.70;87.10;;;;;;5032344;28;19904;-61
2022/05/22 04:36:04;;;;;;;;;;;17.70;86.80;;;;;;5032463;28;19927;-60
2022/05/22 04:38:31;;;;;;;;;;;17.80;86.00;;;;;;5032232;28;19911;-60
2022/05/22 04:40:58;;;;;;;;;;;17.80;85.80;;;;;;5031691;28;19909;-60
2022/05/22 04:43:26;;;;;;;;;;;17.70;85.70;;;;;;5032414;28;19954;-60
2022/05/22 04:45:53;;;;;;;;;;;17.70;86.20;;;;;;5032284;28;19912;-61
2022/05/22 04:48:20;;;;;;;;;;;17.70;85.00;;;;;;5031781;28;19908;-61
2022/05/22 04:50:47;;;;;;;;;;;17.70;84.80;;;;;;5032520;28;19912;-60
2022/05/22 04:53:14;;;;;;;;;;;17.70;86.10;;;;;;5032562;28;19905;-60
2022/05/22 04:55:41;;;;;;;;;;;17.60;85.10;;;;;;5032148;28;20329;-60
2022/05/22 04:58:08;;;;;;;;;;;17.60;85.00;;;;;;5032065;28;20477;-60
2022/05/22 05:00:34;;;;;;;;;;;17.60;85.80;;;;;;5032010;28;19909;-60
2022/05/22 05:03:01;;;;;;;;;;;17.50;85.50;;;;;;5031436;28;19952;-60
2022/05/22 05:05:30;;;;;;;;;;;17.50;85.40;;;;;;5031839;28;19905;-60
2022/05/22 05:07:57;;;;;;;;;;;17.40;86.40;;;;;;5031721;28;19970;-60
2022/05/22 05:10:24;;;;;;;;;;;17.40;86.60;;;;;;5031856;28;20349;-60
2022/05/22 05:12:51;;;;;;;;;;;17.30;86.80;;;;;;5031749;28;19905;-60
2022/05/22 05:15:19;;;;;;;;;;;17.30;86.80;;;;;;5030766;28;19905;-60
2022/05/22 05:17:47;;;;;;;;;;;17.30;87.70;;;;;;5031967;28;19995;-60
2022/05/22 05:20:16;;;;;;;;;;;17.20;87.50;;;;;;5031542;28;19959;-61
2022/05/22 05:22:43;;;;;;;;;;;17.20;87.10;;;;;;5031330;28;20370;-61
2022/05/22 05:25:10;;;;;;;;;;;17.20;87.30;;;;;;5031552;28;19970;-60
2022/05/22 05:27:37;;;;;;;;;;;17.10;87.40;;;;;;5031354;28;19912;-61
2022/05/22 05:30:04;;;;;;;;;;;17.00;86.40;;;;;;5031421;28;19969;-61
2022/05/22 05:32:30;;;;;;;;;;;17.00;86.50;;;;;;5031283;28;19912;-60
2022/05/22 05:34:58;;;;;;;;;;;16.90;86.20;;;;;;5029987;28;20373;-61
2022/05/22 05:37:24;;;;;;;;;;;16.90;86.30;;;;;;5030080;28;19919;-61
2022/05/22 05:39:51;;;;;;;;;;;16.90;86.40;;;;;;5031257;28;19927;-61
2022/05/22 05:42:18;;;;;;;;;;;16.90;87.70;;;;;;5031473;28;19917;-61
2022/05/22 05:44:44;;;;;;;;;;;16.90;87.00;;;;;;5031508;28;19909;-61
2022/05/22 05:47:11;;;;;;;;;;;16.90;87.50;;;;;;5030864;28;19909;-61
2022/05/22 05:49:38;;;;;;;;;;;16.90;88.10;;;;;;5031249;28;20007;-60
2022/05/22 05:52:05;;;;;;;;;;;16.90;88.10;;;;;;5030332;28;19909;-61
2022/05/22 05:54:32;;;;;;;;;;;16.90;88.40;;;;;;5030949;28;20312;-61
2022/05/22 05:56:59;;;;;;;;;;;16.80;88.40;;;;;;5030496;28;19955;-61
2022/05/22 05:59:26;;;;;;;;;;;16.80;88.10;;;;;;5022085;28;20381;-60
2022/05/22 06:01:53;;;;;;;;;;;16.80;88.50;;;;;;5027314;28;20000;-60
2022/05/22 06:04:20;;;;;;;;;;;16.70;88.90;;;;;;5030674;28;19980;-62
2022/05/22 06:06:47;;;;;;;;;;;16.60;88.70;;;;;;5031109;28;20003;-61
2022/05/22 06:09:13;;;;;;;;;;;16.60;88.70;;;;;;5029365;28;19919;-61
2022/05/22 06:11:40;;;;;;;;;;;16.60;88.80;;;;;;5030430;28;20456;-61
2022/05/22 06:14:07;;;;;;;;;;;16.50;88.80;;;;;;5030084;28;19915;-61
2022/05/22 06:16:33;;;;;;;;;;;16.50;89.10;;;;;;5030082;28;19909;-61
2022/05/22 06:19:00;;;;;;;;;;;16.50;89.30;;;;;;5028689;28;19920;-59
2022/05/22 06:21:26;;;;;;;;;;;16.40;89.20;;;;;;5023651;28;19964;-59
2022/05/22 06:23:53;;;;;;;;;;;16.30;89.80;;;;;;5008799;28;20004;-60
2022/05/22 06:26:20;;;;;;;;;;;16.30;89.80;;;;;;5015904;28;19909;-61
2022/05/22 06:28:47;;;;;;;;;;;16.30;89.40;;;;;;5026767;28;20377;-60
2022/05/22 06:31:13;;;;;;;;;;;16.20;89.60;;;;;;5018238;28;20517;-59
2022/05/22 06:33:40;;;;;;;;;;;16.30;89.50;;;;;;5029963;28;20061;-59
2022/05/22 06:36:11;;;;;;;;;;;16.20;89.80;;;;;;5030163;28;20464;-60
2022/05/22 06:41:23;;;;;;;;;;;16.10;89.90;;;;;;5029966;28;20376;-60
2022/05/22 06:43:51;;;;;;;;;;;16.10;89.70;;;;;;5027017;28;19913;-62
2022/05/22 06:46:19;;;;;;;;;;;16.10;89.90;;;;;;5027010;28;20011;-59
2022/05/22 06:48:46;;;;;;;;;;;16.10;89.90;;;;;;5016225;28;19951;-59
2022/05/22 06:51:12;;;;;;;;;;;16.10;89.60;;;;;;5020609;28;19909;-59
2022/05/22 06:53:39;;;;;;;;;;;16.00;89.60;;;;;;5019922;28;19916;-59
2022/05/22 06:56:05;;;;;;;;;;;16.10;89.30;;;;;;5014283;28;19913;-59
2022/05/22 06:58:32;;;;;;;;;;;16.00;90.00;;;;;;5011424;28;19917;-59
2022/05/22 07:00:59;;;;;;;;;;;15.90;90.20;;;;;;5023054;28;20318;-59
2022/05/22 07:03:25;;;;;;;;;;;15.90;90.00;;;;;;5013513;28;19913;-60
2022/05/22 07:05:52;;;;;;;;;;;15.90;90.30;;;;;;5024525;28;19917;-59
2022/05/22 07:08:19;;;;;;;;;;;15.80;90.20;;;;;;5024273;28;20022;-59
2022/05/22 07:13:29;;;;;;;;;;;15.70;90.50;;;;;;5014965;28;19920;-60
2022/05/22 07:15:57;;;;;;;;;;;15.60;90.30;;;;;;5014545;28;19920;-60
2022/05/22 07:18:24;;;;;;;;;;;15.60;90.70;;;;;;5024866;28;20689;-61
2022/05/22 07:20:50;;;;;;;;;;;15.50;90.60;;;;;;5021817;28;20019;-60
2022/05/22 07:23:17;;;;;;;;;;;15.50;90.50;;;;;;5019777;28;19909;-60
2022/05/22 07:25:44;;;;;;;;;;;15.50;90.50;;;;;;5022828;28;19913;-59
2022/05/22 07:28:10;;;;;;;;;;;15.40;90.60;;;;;;5024336;28;20041;-59
2022/05/22 07:30:37;;;;;;;;;;;15.40;90.50;;;;;;5025523;28;19916;-60
2022/05/22 07:33:04;;;;;;;;;;;15.30;90.40;;;;;;5018930;28;19916;-60
2022/05/22 07:35:30;;;;;;;;;;;15.30;90.30;;;;;;5016514;28;20267;-60
2022/05/22 07:37:57;;;;;;;;;;;15.20;90.50;;;;;;5015753;28;19905;-60
2022/05/22 07:40:24;;;;;;;;;;;15.20;90.40;;;;;;5022253;28;19945;-60
2022/05/22 07:42:51;;;;;;;;;;;15.10;90.50;;;;;;5025680;28;19918;-62
2022/05/22 07:45:17;;;;;;;;;;;15.10;90.50;;;;;;5029000;28;19913;-59
2022/05/22 07:47:44;;;;;;;;;;;15.10;90.50;;;;;;5028862;28;20416;-59
2022/05/22 07:50:17;;;;;;;;;;;15.10;90.30;;;;;;5021138;28;19917;-60
2022/05/22 07:52:46;;;;;;;;;;;15.10;90.50;;;;;;5019986;28;19914;-60
2022/05/22 07:55:18;;;;;;;;;;;15.00;90.50;;;;;;5027251;28;19909;-60
2022/05/22 07:57:51;;;;;;;;;;;15.00;90.50;;;;;;5024442;28;20340;-60
2022/05/22 08:00:21;;;;;;;;;;;15.00;90.60;;;;;;5019477;28;19909;-60
2022/05/22 08:02:48;;;;;;;;;;;15.00;90.60;;;;;;5024151;28;19964;-60
2022/05/22 08:05:17;;;;;;;;;;;15.00;90.60;;;;;;5027901;28;19932;-59
2022/05/22 08:07:44;;;;;;;;;;;14.90;90.70;;;;;;5015452;28;20432;-60
2022/05/22 08:10:11;;;;;;;;;;;14.90;90.70;;;;;;5025844;28;19917;-59
2022/05/22 08:12:39;;;;;;;;;;;14.90;90.70;;;;;;5022666;28;19913;-59
2022/05/22 08:15:07;;;;;;;;;;;14.80;90.70;;;;;;5019932;28;19999;-60
2022/05/22 08:17:37;;;;;;;;;;;14.80;90.70;;;;;;5022180;28;20317;-59
2022/05/22 08:20:05;;;;;;;;;;;14.80;90.80;;;;;;5021680;28;20377;-64
2022/05/22 08:22:31;;;;;;;;;;;14.80;90.70;;;;;;5027508;28;19924;-64
2022/05/22 08:24:58;;;;;;;;;;;14.70;90.70;;;;;;5026306;28;19964;-64
2022/05/22 08:27:24;;;;;;;;;;;14.70;90.80;;;;;;5027378;28;19919;-64
2022/05/22 08:29:51;;;;;;;;;;;14.70;90.90;;;;;;5025878;28;19989;-64
2022/05/22 08:32:17;;;;;;;;;;;14.60;90.90;;;;;;5026890;28;19956;-64
2022/05/22 08:34:44;;;;;;;;;;;14.60;90.80;;;;;;5022865;28;19920;-65
2022/05/22 08:37:11;;;;;;;;;;;14.60;91.10;;;;;;5027617;28;19963;-65
2022/05/22 08:39:37;;;;;;;;;;;14.50;91.00;;;;;;5017283;28;19971;-65
2022/05/22 08:42:08;;;;;;;;;;;14.50;91.10;;;;;;5024018;28;19925;-65
2022/05/22 08:44:35;;;;;;;;;;;14.50;91.10;;;;;;5019016;28;19948;-64
2022/05/22 08:47:18;;;;;;;;;;;14.50;91.10;;;;;;5020126;28;20362;-65
2022/05/22 08:49:48;;;;;;;;;;;14.50;91.20;;;;;;5022705;28;19905;-64
2022/05/22 08:52:31;;;;;;;;;;;14.50;91.30;;;;;;5024705;28;19971;-65
2022/05/22 08:55:01;;;;;;;;;;;14.40;91.40;;;;;;5019474;28;19940;-64
2022/05/22 09:00:32;;;;;;;;;;;14.40;91.50;;;;;;5024314;28;20006;-64
2022/05/22 09:03:00;;;;;;;;;;;14.40;91.60;;;;;;5019479;28;19917;-65
2022/05/22 09:05:29;;;;;;;;;;;14.40;91.70;;;;;;5013042;28;19995;-65
2022/05/22 09:08:06;;;;;;;;;;;14.40;91.80;;;;;;5020813;28;19917;-65
2022/05/22 09:10:40;;;;;;;;;;;14.40;91.80;;;;;;5023137;28;19921;-65
2022/05/22 09:13:10;;;;;;;;;;;14.40;91.80;;;;;;5015154;28;19913;-65
2022/05/22 09:15:37;;;;;;;;;;;14.40;91.80;;;;;;5020666;28;20439;-65
2022/05/22 09:18:10;;;;;;;;;;;14.30;91.80;;;;;;5019369;28;19956;-65
2022/05/22 09:20:57;;;;;;;;;;;14.30;92.00;;;;;;5016931;28;19913;-66
2022/05/22 09:23:42;;;;;;;;;;;14.30;92.10;;;;;;5023315;28;20008;-65
2022/05/22 09:26:10;;;;;;;;;;;14.30;92.40;;;;;;5027621;28;19909;-65
2022/05/22 09:28:43;;;;;;;;;;;14.30;92.20;;;;;;5023980;28;19971;-65
2022/05/22 09:31:22;;;;;;;;;;;14.30;92.20;;;;;;5017600;28;19921;-65
2022/05/22 09:34:01;;;;;;;;;;;14.30;92.20;;;;;;5028834;28;19928;-65
2022/05/22 09:36:28;;;;;;;;;;;14.30;92.20;;;;;;5016524;28;19935;-59
2022/05/22 09:39:00;;;;;;;;;;;14.30;92.40;;;;;;5028447;28;19935;-59
2022/05/22 09:41:37;;;;;;;;;;;14.20;92.50;;;;;;5023345;28;20361;-60
2022/05/22 09:44:06;;;;;;;;;;;14.20;92.60;;;;;;5009111;28;19929;-59
2022/05/22 09:46:39;;;;;;;;;;;14.10;92.70;;;;;;5027202;28;19913;-60
2022/05/22 09:49:19;;;;;;;;;;;14.10;92.80;;;;;;5027924;28;19915;-60
2022/05/22 09:52:05;;;;;;;;;;;14.00;93.30;;;;;;5028534;28;20369;-60
2022/05/22 09:54:53;;;;;;;;;;;14.00;92.90;;;;;;5015601;28;20011;-61
2022/05/22 09:57:23;;;;;;;;;;;14.00;93.10;;;;;;5029025;28;20430;-61
2022/05/22 10:00:25;;;;;;;;;;;13.90;93.10;;;;;;5028905;28;19955;-59
2022/05/22 10:02:51;;;;;;;;;;;13.90;93.40;;;;;;5025399;28;19921;-60
2022/05/22 10:05:36;;;;;;;;;;;14.00;93.40;;;;;;5027866;28;19912;-59
2022/05/22 10:08:23;;;;;;;;;;;14.00;93.40;;;;;;5027352;28;19917;-61
2022/05/22 10:10:52;;;;;;;;;;;14.00;93.40;;;;;;5028257;28;20358;-59
2022/05/22 10:13:27;;;;;;;;;;;14.00;93.50;;;;;;5027988;28;19931;-59
2022/05/22 10:15:57;;;;;;;;;;;14.00;93.50;;;;;;5027616;28;19913;-60
2022/05/22 10:18:26;;;;;;;;;;;14.00;93.60;;;;;;5016820;28;19909;-60
2022/05/22 10:21:17;;;;;;;;;;;14.00;93.70;;;;;;5027750;28;19916;-60
2022/05/22 10:23:54;;;;;;;;;;;14.00;93.70;;;;;;5027380;28;19917;-59
2022/05/22 10:26:33;;;;;;;;;;;14.10;93.50;;;;;;5025570;28;19909;-61
2022/05/22 10:29:02;;;;;;;;;;;14.10;93.40;;;;;;5027795;28;19917;-60
2022/05/22 10:32:07;;;;;;;;;;;14.10;93.40;;;;;;5027561;28;19955;-60
2022/05/22 10:34:52;;;;;;;;;;;14.10;93.40;;;;;;5012298;28;19913;-59
2022/05/22 10:37:28;;;;;;;;;;;14.20;93.50;;;;;;5014138;28;20361;-59
2022/05/22 10:39:57;;;;;;;;;;;14.20;93.30;;;;;;5010641;28;19909;-59
2022/05/22 10:42:49;;;;;;;;;;;14.10;93.10;;;;;;5022437;28;19960;-59
2022/05/22 10:45:22;;;;;;;;;;;14.20;93.40;;;;;;5006061;28;19924;-60
2022/05/22 10:47:49;;;;;;;;;;;14.20;93.30;;;;;;5020344;28;19916;-60
2022/05/22 10:50:16;;;;;;;;;;;14.30;93.00;;;;;;5018789;28;19917;-61
2022/05/22 10:52:45;;;;;;;;;;;14.30;93.10;;;;;;5023681;28;19909;-60
2022/05/22 10:55:30;;;;;;;;;;;14.30;93.40;;;;;;5021808;28;19945;-60
2022/05/22 10:58:19;;;;;;;;;;;14.20;93.70;;;;;;5024415;28;19955;-61
2022/05/22 11:00:56;;;;;;;;;;;14.20;93.80;;;;;;5022052;28;20375;-60
2022/05/22 11:03:27;;;;;;;;;;;14.20;93.60;;;;;;5016977;28;19925;-60
2022/05/22 11:05:55;;;;;;;;;;;14.10;93.70;;;;;;5021516;28;19939;-60
2022/05/22 11:08:33;;;;;;;;;;;14.10;92.80;;;;;;5025467;28;19917;-65
2022/05/22 11:11:13;;;;;;;;;;;14.10;92.50;;;;;;5022839;28;19916;-60
2022/05/22 11:13:40;;;;;;;;;;;14.00;92.40;;;;;;5015380;28;20377;-60
2022/05/22 11:16:11;;;;;;;;;;;14.00;92.60;;;;;;5019735;28;19995;-60
2022/05/22 11:18:38;;;;;;;;;;;14.00;92.80;;;;;;5022683;28;19913;-60
2022/05/22 11:21:09;;;;;;;;;;;14.00;93.00;;;;;;5019408;28;19913;-60
2022/05/22 11:24:11;;;;;;;;;;;13.90;92.60;;;;;;5024209;28;19921;-60
2022/05/22 11:26:52;;;;;;;;;;;13.90;92.60;;;;;;4975295;28;19914;-61
2022/05/22 11:29:22;;;;;;;;;;;13.80;92.80;;;;;;5014188;28;19912;-60
2022/05/22 11:31:56;;;;;;;;;;;13.70;93.10;;;;;;5023247;28;19925;-59
2022/05/22 11:34:29;;;;;;;;;;;13.70;93.20;;;;;;5019790;28;20413;-60
2022/05/22 11:37:13;;;;;;;;;;;13.60;93.10;;;;;;5024502;28;20641;-60
2022/05/22 11:39:43;;;;;;;;;;;13.60;93.00;;;;;;5021555;28;19999;-61
2022/05/22 11:42:09;;;;;;;;;;;13.60;93.20;;;;;;5023178;28;20358;-61
2022/05/22 11:44:48;;;;;;;;;;;13.50;93.10;;;;;;5025387;28;20294;-60
2022/05/22 11:47:14;;;;;;;;;;;13.50;93.20;;;;;;5024496;28;20261;-60
2022/05/22 11:49:53;;;;;;;;;;;13.50;93.50;;;;;;5025171;28;19942;-60
2022/05/22 11:55:16;;;;;;;;;;;13.30;93.50;;;;;;5026744;28;20447;-60
2022/05/22 11:57:48;;;;;;;;;;;13.30;93.50;;;;;;5025130;28;19920;-59
2022/05/22 12:00:32;;;;;;;;;;;13.30;93.40;;;;;;5023706;28;20296;-62
2022/05/22 12:03:06;;;;;;;;;;;13.30;93.50;;;;;;5018725;28;20669;-60
2022/05/22 12:05:38;;;;;;;;;;;13.30;93.60;;;;;;5040388;28;19960;-59
2022/05/22 12:08:04;;;;;;;;;;;13.20;93.70;;;;;;5030322;28;19927;-57
2022/05/22 12:10:33;;;;;;;;;;;13.20;93.70;;;;;;5025511;28;20012;-59
2022/05/22 12:13:06;;;;;;;;;;;13.20;93.80;;;;;;5024790;28;19970;-59
2022/05/22 12:15:33;;;;;;;;;;;13.20;93.80;;;;;;5023036;28;19914;-59
2022/05/22 12:18:18;;;;;;;;;;;13.20;93.80;;;;;;5025125;28;19919;-60
2022/05/22 12:20:44;;;;;;;;;;;13.20;93.90;;;;;;5015815;28;20324;-65
2022/05/22 12:23:21;;;;;;;;;;;13.10;93.80;;;;;;5028424;28;20263;-59
2022/05/22 12:25:53;;;;;;;;;;;13.10;93.90;;;;;;5028568;28;19909;-59
2022/05/22 12:28:26;;;;;;;;;;;13.10;94.00;;;;;;5019491;28;19913;-59
2022/05/22 12:30:54;;;;;;;;;;;13.00;94.10;;;;;;5028727;28;19905;-59
2022/05/22 12:33:23;;;;;;;;;;;13.00;94.20;;;;;;5018840;28;19909;-59
2022/05/22 12:35:52;;;;;;;;;;;13.00;94.30;;;;;;5019678;28;19936;-59
2022/05/22 12:38:18;;;;;;;;;;;12.90;94.30;;;;;;5017654;28;19913;-58
2022/05/22 12:40:45;;;;;;;;;;;12.90;94.30;;;;;;5026196;28;20032;-59
2022/05/22 12:43:14;;;;;;;;;;;12.90;94.60;;;;;;5029462;28;19979;-59
2022/05/22 12:45:41;;;;;;;;;;;12.80;94.50;;;;;;5024658;28;19905;-60
2022/05/22 12:48:12;;;;;;;;;;;12.80;94.50;;;;;;5026605;28;19909;-59
2022/05/22 12:50:39;;;;;;;;;;;12.80;94.50;;;;;;5029527;28;20049;-59
2022/05/22 12:53:15;;;;;;;;;;;12.80;94.50;;;;;;5021138;28;19917;-60
2022/05/22 12:55:41;;;;;;;;;;;12.80;94.30;;;;;;5025926;28;19917;-59
2022/05/22 12:58:28;;;;;;;;;;;12.70;94.30;;;;;;5029009;28;19909;-59
2022/05/22 13:00:56;;;;;;;;;;;12.70;94.50;;;;;;5014708;28;20420;-59
2022/05/22 13:03:41;;;;;;;;;;;12.70;94.50;;;;;;5025336;28;19921;-59
2022/05/22 13:06:18;;;;;;;;;;;12.60;94.50;;;;;;5028044;28;19905;-59
2022/05/22 13:08:47;;;;;;;;;;;12.60;94.50;;;;;;5029816;28;19917;-59
2022/05/22 13:11:31;;;;;;;;;;;12.50;94.40;;;;;;5016938;28;20275;-59
2022/05/22 13:13:58;;;;;;;;;;;12.50;94.40;;;;;;5018558;28;19916;-61
2022/05/22 13:16:28;;;;;;;;;;;12.50;94.60;;;;;;5021518;28;19964;-60
2022/05/22 13:18:55;;;;;;;;;;;12.40;94.60;;;;;;5017640;28;19963;-60
2022/05/22 13:21:29;;;;;;;;;;;12.30;94.50;;;;;;5022002;28;19913;-60
2022/05/22 13:24:16;;;;;;;;;;;12.30;94.70;;;;;;5030305;28;20332;-60
2022/05/22 13:26:43;;;;;;;;;;;12.30;94.70;;;;;;5023336;28;19920;-60
2022/05/22 13:29:13;;;;;;;;;;;12.20;94.80;;;;;;5023229;28;20377;-60
2022/05/22 13:31:40;;;;;;;;;;;12.20;94.90;;;;;;5025915;28;20332;-60
2022/05/22 13:34:08;;;;;;;;;;;12.20;94.80;;;;;;5019664;28;20266;-60
2022/05/22 13:36:41;;;;;;;;;;;12.10;94.80;;;;;;5028196;28;19909;-60
2022/05/22 13:39:13;;;;;;;;;;;12.10;94.80;;;;;;5012627;28;19962;-60
2022/05/22 13:41:42;;;;;;;;;;;12.10;94.90;;;;;;5018291;28;19980;-60
2022/05/22 13:44:09;;;;;;;;;;;12.10;95.00;;;;;;5021851;28;20378;-60
2022/05/22 13:46:54;;;;;;;;;;;12.00;94.90;;;;;;5023964;28;20277;-60
2022/05/22 13:49:20;;;;;;;;;;;12.00;94.80;;;;;;5020539;28;19912;-60
2022/05/22 13:54:52;;;;;;;;;;;12.00;94.80;;;;;;5025899;28;20276;-60
2022/05/22 13:57:18;;;;;;;;;;;12.00;94.80;;;;;;5027452;28;19949;-60
2022/05/22 13:59:49;;;;;;;;;;;11.90;94.80;;;;;;5027931;28;19917;-60
2022/05/22 14:02:20;;;;;;;;;;;11.90;94.70;;;;;;5023273;28;19925;-60
2022/05/22 14:04:48;;;;;;;;;;;11.90;94.70;;;;;;5014292;28;20350;-60
2022/05/22 14:07:30;;;;;;;;;;;11.90;94.80;;;;;;5024670;28;19921;-60
2022/05/22 14:09:57;;;;;;;;;;;11.80;94.70;;;;;;5024643;28;19989;-60
2022/05/22 14:12:43;;;;;;;;;;;11.70;95.00;;;;;;5026440;28;19955;-60
2022/05/22 14:15:15;;;;;;;;;;;11.70;94.90;;;;;;5022183;28;20004;-60
2022/05/22 14:17:42;;;;;;;;;;;11.70;95.00;;;;;;5018722;28;20324;-60
2022/05/22 14:20:13;;;;;;;;;;;11.60;95.10;;;;;;5025664;28;19905;-60
2022/05/22 14:22:40;;;;;;;;;;;11.60;95.20;;;;;;5016089;28;19921;-60
2022/05/22 14:25:09;;;;;;;;;;;11.50;95.10;;;;;;5022987;28;20375;-60
2022/05/22 14:27:40;;;;;;;;;;;11.40;95.10;;;;;;5015157;28;19913;-60
2022/05/22 14:30:14;;;;;;;;;;;11.30;95.40;;;;;;5026865;28;20364;-60
2022/05/22 14:32:42;;;;;;;;;;;11.20;95.70;;;;;;5028152;28;20637;-60
2022/05/22 14:35:14;;;;;;;;;;;11.20;95.70;;;;;;5022011;28;19909;-60
2022/05/22 14:37:41;;;;;;;;;;;11.10;95.50;;;;;;5020723;28;19917;-60
2022/05/22 14:40:14;;;;;;;;;;;11.00;95.60;;;;;;5022816;28;19905;-60
2022/05/22 14:42:41;;;;;;;;;;;11.00;95.90;;;;;;5023663;28;19921;-59
2022/05/22 14:45:33;;;;;;;;;;;11.00;96.20;;;;;;5013425;28;20346;-59
2022/05/22 14:48:01;;;;;;;;;;;11.00;96.30;;;;;;5027166;28;19913;-59
2022/05/22 14:50:28;;;;;;;;;;;11.00;96.40;;;;;;5015617;28;19909;-59